Time;durP1;ratioP1;P1;durP2;ratioP2;P2;SDS_P1;SDS_P2;PMS_P1;PMS_P2;Temp;Humidity;BMP_temperature;BMP_pressure;BME280_temperature;BME280_humidity;BME280_pressure;Samples;Min_cycle;Max_cycle;Signal;HPM_P1;HPM_P2
2023/09/17 00:01:06;;;;;;;14.60;9.38;;;;;;;17.71;100.00;101291.06;4879242;29;20056;-71
2023/09/17 00:03:32;;;;;;;16.30;9.60;;;;;;;17.65;100.00;101283.88;4895461;29;20464;-71
2023/09/17 00:05:58;;;;;;;18.20;8.68;;;;;;;17.42;100.00;101276.59;4896317;29;20475;-70
2023/09/17 00:08:23;;;;;;;16.42;9.70;;;;;;;17.37;100.00;101276.47;4896327;29;20115;-70
2023/09/17 00:10:49;;;;;;;14.35;8.82;;;;;;;17.18;100.00;101281.09;4896390;29;20029;-70
2023/09/17 00:13:15;;;;;;;15.02;9.55;;;;;;;16.93;100.00;101281.25;4894965;29;20127;-71
2023/09/17 00:15:40;;;;;;;18.30;10.30;;;;;;;16.72;100.00;101274.47;4896071;29;20031;-70
2023/09/17 00:18:06;;;;;;;15.38;9.30;;;;;;;16.54;100.00;101277.16;4896044;29;20503;-70
2023/09/17 00:20:31;;;;;;;16.90;9.00;;;;;;;16.46;100.00;101278.28;4896041;29;20032;-71
2023/09/17 00:22:57;;;;;;;18.38;9.90;;;;;;;16.45;100.00;101273.94;4896088;29;20096;-70
2023/09/17 00:25:22;;;;;;;16.38;9.02;;;;;;;16.49;100.00;101258.19;4895901;29;20047;-70
2023/09/17 00:27:48;;;;;;;14.38;8.27;;;;;;;16.58;100.00;101252.25;4895817;29;20039;-71
2023/09/17 00:30:15;;;;;;;15.18;9.27;;;;;;;16.61;100.00;101246.41;4895962;29;20044;-70
2023/09/17 00:32:40;;;;;;;15.48;8.43;;;;;;;16.64;100.00;101243.28;4894579;29;20025;-70
2023/09/17 00:35:06;;;;;;;15.35;9.30;;;;;;;16.70;100.00;101235.31;4894583;29;20093;-71
2023/09/17 00:37:31;;;;;;;13.70;8.68;;;;;;;16.70;100.00;101240.72;4878876;29;20061;-70
2023/09/17 00:39:57;;;;;;;15.20;9.60;;;;;;;16.68;100.00;101237.41;4895770;29;20043;-70
2023/09/17 00:42:23;;;;;;;15.65;10.02;;;;;;;16.67;100.00;101233.09;4895555;29;20083;-71
2023/09/17 00:44:48;;;;;;;13.10;8.52;;;;;;;16.71;100.00;101240.47;4895651;29;20032;-70
2023/09/17 00:47:14;;;;;;;13.98;8.25;;;;;;;16.73;100.00;101227.59;4895524;29;20033;-70
2023/09/17 00:49:40;;;;;;;13.63;8.60;;;;;;;16.73;100.00;101216.81;4895557;29;20028;-70
2023/09/17 00:52:15;;;;;;;14.95;8.60;;;;;;;16.76;100.00;101223.63;4895502;29;20036;-70
2023/09/17 00:54:42;;;;;;;15.07;8.35;;;;;;;16.74;100.00;101228.41;4894137;29;20028;-70
2023/09/17 00:57:07;;;;;;;14.15;8.57;;;;;;;16.72;100.00;101220.59;4895352;29;20040;-70
2023/09/17 00:59:33;;;;;;;13.48;8.13;;;;;;;16.73;100.00;101222.22;4895081;29;20403;-70
2023/09/17 01:02:02;;;;;;;13.85;8.48;;;;;;;16.78;100.00;101246.63;4879383;29;20473;-70
2023/09/17 01:04:27;;;;;;;13.68;8.43;;;;;;;16.79;100.00;101234.81;4896056;29;20036;-70
2023/09/17 01:06:55;;;;;;;16.67;9.77;;;;;;;16.87;100.00;101247.13;4895130;29;20140;-71
2023/09/17 01:09:22;;;;;;;14.32;7.80;;;;;;;16.86;100.00;101246.31;4895234;29;20544;-70
2023/09/17 01:11:49;;;;;;;15.98;9.38;;;;;;;16.85;100.00;101262.72;4895028;29;20036;-71
2023/09/17 01:14:14;;;;;;;14.38;8.25;;;;;;;16.81;100.00;101283.88;4878005;29;20441;-70
2023/09/17 01:16:42;;;;;;;15.48;9.23;;;;;;;16.83;100.00;101287.19;4895173;29;20125;-71
2023/09/17 01:19:23;;;;;;;16.50;9.63;;;;;;;16.84;100.00;101296.06;4895141;29;20035;-70
2023/09/17 01:21:58;;;;;;;14.77;8.38;;;;;;;16.79;100.00;101286.00;4894861;29;20488;-71
2023/09/17 01:24:30;;;;;;;14.35;9.00;;;;;;;16.83;100.00;101265.63;4894989;29;20491;-70
2023/09/17 01:27:03;;;;;;;15.05;9.00;;;;;;;16.67;100.00;101236.59;4895111;29;20039;-70
2023/09/17 01:29:38;;;;;;;14.32;8.70;;;;;;;16.31;100.00;101245.53;4894994;29;20092;-70
2023/09/17 01:32:07;;;;;;;17.63;10.60;;;;;;;16.03;100.00;101263.00;4894811;29;20036;-70
2023/09/17 01:34:39;;;;;;;18.95;11.30;;;;;;;15.77;100.00;101239.88;4894846;29;20031;-70
2023/09/17 01:37:09;;;;;;;17.42;10.77;;;;;;;15.67;100.00;101250.31;4894852;29;20036;-69
2023/09/17 01:39:41;;;;;;;17.52;11.52;;;;;;;15.56;100.00;101250.00;4894721;29;20032;-70
2023/09/17 01:42:08;;;;;;;18.38;11.35;;;;;;;15.44;100.00;101246.38;4894582;29;20037;-69
2023/09/17 01:44:35;;;;;;;20.05;12.55;;;;;;;15.30;100.00;101240.28;4894687;29;20127;-69
2023/09/17 01:47:03;;;;;;;20.25;12.90;;;;;;;15.19;100.00;101234.75;4894580;29;20036;-69
2023/09/17 01:49:32;;;;;;;19.90;12.18;;;;;;;15.09;100.00;101222.66;4894507;29;20505;-69
2023/09/17 01:51:57;;;;;;;20.27;11.77;;;;;;;15.04;100.00;101221.66;4894595;29;20152;-69
2023/09/17 01:54:25;;;;;;;21.77;13.18;;;;;;;14.94;100.00;101219.44;4894337;29;20520;-68
2023/09/17 01:56:50;;;;;;;21.20;13.13;;;;;;;14.92;100.00;101221.50;4894533;29;20396;-69
2023/09/17 01:59:16;;;;;;;21.05;12.90;;;;;;;14.87;100.00;101216.78;4894317;29;20099;-69
2023/09/17 02:01:44;;;;;;;20.92;12.93;;;;;;;14.88;100.00;101215.75;4894171;29;20380;-69
2023/09/17 02:04:10;;;;;;;25.38;13.98;;;;;;;14.85;100.00;101220.72;4894409;29;20033;-69
2023/09/17 02:06:36;;;;;;;22.42;13.10;;;;;;;14.81;100.00;101227.59;4894274;29;20064;-69
2023/09/17 02:09:05;;;;;;;26.50;14.45;;;;;;;14.81;100.00;101233.78;4894460;29;20561;-69
2023/09/17 02:11:31;;;;;;;23.60;14.15;;;;;;;14.79;100.00;101238.53;4894385;29;20025;-70
2023/09/17 02:13:56;;;;;;;21.73;14.00;;;;;;;14.69;100.00;101220.19;4894329;29;20096;-69
2023/09/17 02:16:21;;;;;;;24.08;14.45;;;;;;;14.80;100.00;101233.97;4894350;29;20476;-69
2023/09/17 02:18:47;;;;;;;26.98;16.02;;;;;;;14.75;100.00;101231.09;4894271;29;20107;-69
2023/09/17 02:21:13;;;;;;;27.02;15.68;;;;;;;14.65;100.00;101215.50;4877277;29;20477;-70
2023/09/17 02:23:38;;;;;;;23.42;14.90;;;;;;;14.76;100.00;101235.47;4894089;29;20067;-69
2023/09/17 02:26:03;;;;;;;24.25;14.00;;;;;;;14.74;100.00;101235.66;4894080;29;20043;-69
2023/09/17 02:28:29;;;;;;;24.70;14.88;;;;;;;14.76;100.00;101236.28;4898043;29;20476;-70
2023/09/17 02:30:54;;;;;;;21.75;14.40;;;;;;;14.74;100.00;101219.56;4897784;29;20029;-69
2023/09/17 02:33:19;;;;;;;25.63;13.93;;;;;;;14.74;100.00;101213.38;4898022;29;20040;-69
2023/09/17 02:35:45;;;;;;;22.20;13.68;;;;;;;14.71;100.00;101206.56;4897875;29;20040;-69
2023/09/17 02:38:10;;;;;;;25.60;15.90;;;;;;;14.68;100.00;101204.31;4897900;29;20062;-69
2023/09/17 02:40:35;;;;;;;26.60;16.17;;;;;;;14.62;100.00;101186.38;4897631;29;20040;-69
2023/09/17 02:43:01;;;;;;;23.35;14.68;;;;;;;14.61;100.00;101196.28;4880979;29;20392;-68
2023/09/17 02:45:27;;;;;;;25.08;15.63;;;;;;;14.52;100.00;101184.13;4897722;29;20111;-69
2023/09/17 02:47:53;;;;;;;23.13;14.27;;;;;;;14.44;100.00;101165.59;4880872;29;20449;-69
2023/09/17 02:50:19;;;;;;;24.65;15.43;;;;;;;14.47;100.00;101174.03;4897469;29;20456;-69
2023/09/17 02:52:45;;;;;;;24.55;15.23;;;;;;;14.45;100.00;101177.97;4897544;29;20032;-69
2023/09/17 02:55:11;;;;;;;23.60;14.65;;;;;;;14.39;100.00;101168.91;4897393;29;20047;-69
2023/09/17 02:57:36;;;;;;;25.05;16.80;;;;;;;14.33;100.00;101174.28;4897457;29;20687;-69
2023/09/17 03:00:05;;;;;;;24.60;16.35;;;;;;;14.17;100.00;101146.94;4880351;29;20125;-69
2023/09/17 03:02:30;;;;;;;24.27;15.48;;;;;;;14.17;100.00;101156.81;4897347;29;20037;-68
2023/09/17 03:04:58;;;;;;;23.98;15.32;;;;;;;14.17;100.00;101155.00;4880698;29;20044;-69
2023/09/17 03:07:24;;;;;;;26.30;15.77;;;;;;;14.12;100.00;101153.97;4897250;29;20041;-69
2023/09/17 03:09:49;;;;;;;26.60;15.82;;;;;;;14.11;100.00;101149.63;4897240;29;20111;-69
2023/09/17 03:12:15;;;;;;;26.13;16.35;;;;;;;14.08;100.00;101148.22;4897479;29;20120;-69
2023/09/17 03:14:40;;;;;;;25.42;15.15;;;;;;;14.01;100.00;101134.81;4897204;29;20044;-69
2023/09/17 03:17:05;;;;;;;23.92;15.05;;;;;;;14.06;100.00;101142.22;4880502;29;20395;-69
2023/09/17 03:19:31;;;;;;;21.60;13.40;;;;;;;14.07;100.00;101137.69;4897185;29;20452;-69
2023/09/17 03:21:57;;;;;;;24.65;16.08;;;;;;;14.09;100.00;101146.34;4897112;29;20084;-69
2023/09/17 03:24:22;;;;;;;25.15;16.10;;;;;;;13.99;100.00;101131.53;4897152;29;20599;-69
2023/09/17 03:26:48;;;;;;;25.02;15.90;;;;;;;14.10;100.00;101150.69;4880080;29;20645;-69
2023/09/17 03:29:13;;;;;;;27.15;17.88;;;;;;;14.10;100.00;101146.13;4880060;29;20047;-69
2023/09/17 03:31:39;;;;;;;25.50;16.80;;;;;;;14.08;100.00;101142.84;4896993;29;20059;-69
2023/09/17 03:34:04;;;;;;;25.95;17.48;;;;;;;14.08;100.00;101139.34;4896929;29;20111;-70
2023/09/17 03:36:30;;;;;;;28.75;17.85;;;;;;;14.05;100.00;101137.91;4897889;29;20021;-69
2023/09/17 03:38:55;;;;;;;25.85;17.02;;;;;;;14.14;100.00;101146.53;4899327;29;20032;-69
2023/09/17 03:41:21;;;;;;;26.35;16.77;;;;;;;14.15;100.00;101140.97;4896701;29;20093;-69
2023/09/17 03:43:46;;;;;;;28.00;20.75;;;;;;;14.14;100.00;101141.97;4896734;29;20043;-69
2023/09/17 03:46:12;;;;;;;27.77;19.42;;;;;;;14.17;100.00;101138.06;4896612;29;20120;-70
2023/09/17 03:48:39;;;;;;;28.73;18.85;;;;;;;14.19;100.00;101134.13;4879608;29;20065;-69
2023/09/17 03:51:04;;;;;;;27.92;19.80;;;;;;;14.22;100.00;101130.19;4880127;29;20024;-70
2023/09/17 03:53:30;;;;;;;26.35;16.63;;;;;;;14.33;100.00;101139.41;4896648;29;20048;-69
2023/09/17 03:55:56;;;;;;;27.67;19.55;;;;;;;14.35;100.00;101138.16;4896650;29;20036;-69
2023/09/17 03:58:21;;;;;;;28.77;19.23;;;;;;;14.40;100.00;101132.97;4896492;29;20103;-69
2023/09/17 04:00:47;;;;;;;28.23;18.08;;;;;;;14.42;100.00;101136.28;4896222;29;20111;-69
2023/09/17 04:03:14;;;;;;;29.55;20.05;;;;;;;14.49;100.00;101138.94;4896431;29;20036;-69
2023/09/17 04:05:40;;;;;;;28.17;19.48;;;;;;;14.55;100.00;101145.34;4896404;29;20373;-69
2023/09/17 04:08:05;;;;;;;26.55;19.13;;;;;;;14.61;100.00;101141.78;4896423;29;20050;-70
2023/09/17 04:10:30;;;;;;;32.38;21.20;;;;;;;14.65;100.00;101135.75;4896378;29;20044;-69
2023/09/17 04:12:56;;;;;;;33.80;21.40;;;;;;;14.71;100.00;101142.13;4896291;29;20150;-69
2023/09/17 04:15:24;;;;;;;31.13;20.55;;;;;;;14.76;100.00;101136.94;4896125;29;20048;-69
2023/09/17 04:17:53;;;;;;;30.73;19.73;;;;;;;14.78;100.00;101137.53;4896229;29;20032;-69
2023/09/17 04:20:19;;;;;;;30.35;21.30;;;;;;;14.87;100.00;101138.09;4896074;29;20041;-69
2023/09/17 04:22:49;;;;;;;33.90;21.45;;;;;;;14.86;100.00;101136.44;4895932;29;20032;-68
2023/09/17 04:25:16;;;;;;;31.92;20.85;;;;;;;14.93;100.00;101131.00;4895945;29;20041;-69
2023/09/17 04:27:42;;;;;;;34.13;21.70;;;;;;;14.93;100.00;101123.78;4895909;29;20028;-69
2023/09/17 04:30:08;;;;;;;33.15;20.65;;;;;;;15.02;100.00;101130.53;4878967;29;20037;-69
2023/09/17 04:32:38;;;;;;;31.77;21.13;;;;;;;15.09;100.00;101130.47;4879075;29;20037;-69
2023/09/17 04:35:11;;;;;;;32.22;21.77;;;;;;;15.12;100.00;101130.88;4895678;29;20772;-69
2023/09/17 04:37:39;;;;;;;29.80;18.77;;;;;;;15.10;100.00;101119.50;4895898;29;20480;-69
2023/09/17 04:40:08;;;;;;;32.08;20.70;;;;;;;15.25;100.00;101123.75;4895759;29;20036;-69
2023/09/17 04:42:38;;;;;;;32.17;23.00;;;;;;;15.26;100.00;101125.38;4895620;29;20108;-69
2023/09/17 04:45:04;;;;;;;31.33;20.75;;;;;;;15.32;100.00;101125.28;4895504;29;20032;-69
2023/09/17 04:47:34;;;;;;;33.08;21.13;;;;;;;15.39;100.00;101132.50;4895606;29;20088;-69
2023/09/17 04:50:00;;;;;;;32.88;21.02;;;;;;;15.39;100.00;101122.56;4895266;29;20773;-69
2023/09/17 04:52:25;;;;;;;30.27;20.50;;;;;;;15.42;100.00;101124.78;4895712;29;20032;-69
2023/09/17 04:54:51;;;;;;;28.63;19.35;;;;;;;15.47;100.00;101119.56;4893927;29;20047;-69
2023/09/17 04:57:16;;;;;;;29.52;20.33;;;;;;;15.50;100.00;101121.81;4895703;29;20037;-69
2023/09/17 04:59:42;;;;;;;28.50;17.63;;;;;;;15.50;100.00;101115.63;4895087;29;20029;-69
2023/09/17 05:02:07;;;;;;;30.13;20.10;;;;;;;15.57;100.00;101116.38;4895131;29;20092;-69
2023/09/17 05:04:32;;;;;;;29.10;19.23;;;;;;;15.58;100.00;101123.38;4895168;29;20040;-69
2023/09/17 05:06:58;;;;;;;31.30;19.58;;;;;;;15.57;100.00;101111.81;4895272;29;20035;-69
2023/09/17 05:09:25;;;;;;;29.83;18.70;;;;;;;15.63;100.00;101126.22;4895273;29;20028;-69
2023/09/17 05:11:51;;;;;;;28.27;18.27;;;;;;;15.60;100.00;101110.56;4895153;29;20036;-69
2023/09/17 05:14:16;;;;;;;31.95;18.38;;;;;;;15.71;100.00;101122.47;4894858;29;20121;-69
2023/09/17 05:16:41;;;;;;;30.42;18.63;;;;;;;15.73;100.00;101128.44;4895028;29;20491;-69
2023/09/17 05:19:07;;;;;;;29.25;19.45;;;;;;;15.75;100.00;101121.78;4878096;29;20119;-70
2023/09/17 05:21:32;;;;;;;27.92;18.00;;;;;;;15.77;100.00;101119.72;4894893;29;20123;-69
2023/09/17 05:23:57;;;;;;;29.38;19.67;;;;;;;15.80;100.00;101126.50;4894956;29;20028;-69
2023/09/17 05:26:23;;;;;;;27.27;18.25;;;;;;;15.84;100.00;101127.69;4894956;29;20064;-69
2023/09/17 05:28:48;;;;;;;27.50;17.88;;;;;;;15.85;100.00;101128.50;4878101;29;20044;-70
2023/09/17 05:31:14;;;;;;;30.45;20.88;;;;;;;15.88;100.00;101138.84;4894701;29;20068;-69
2023/09/17 05:33:39;;;;;;;27.17;20.15;;;;;;;15.89;100.00;101135.91;4894931;29;20032;-69
2023/09/17 05:36:05;;;;;;;30.48;21.10;;;;;;;15.93;100.00;101133.59;4894662;29;20096;-69
2023/09/17 05:38:30;;;;;;;29.00;18.38;;;;;;;15.90;100.00;101134.03;4894694;29;20029;-69
2023/09/17 05:40:56;;;;;;;30.80;20.02;;;;;;;15.98;100.00;101141.78;4894469;29;20416;-69
2023/09/17 05:43:22;;;;;;;27.17;18.40;;;;;;;15.99;100.00;101138.06;4894739;29;20396;-69
2023/09/17 05:45:49;;;;;;;30.85;20.65;;;;;;;15.98;100.00;101139.94;4877882;29;20385;-69
2023/09/17 05:48:14;;;;;;;27.42;19.00;;;;;;;16.02;100.00;101140.31;4862696;29;20091;-69
2023/09/17 05:50:40;;;;;;;28.88;20.00;;;;;;;16.04;100.00;101135.53;4894373;29;20032;-69
2023/09/17 05:53:05;;;;;;;26.85;18.42;;;;;;;16.07;100.00;101142.34;4894489;29;20064;-70
2023/09/17 05:55:30;;;;;;;30.38;19.67;;;;;;;16.09;100.00;101135.69;4894228;29;20029;-70
2023/09/17 05:57:56;;;;;;;29.83;18.85;;;;;;;16.12;100.00;101139.78;4894345;29;20099;-70
2023/09/17 06:00:22;;;;;;;30.25;20.67;;;;;;;16.08;100.00;101128.63;4894152;29;20052;-70
2023/09/17 06:02:47;;;;;;;30.30;19.52;;;;;;;16.16;100.00;101138.25;4893211;29;20948;-70
2023/09/17 06:05:13;;;;;;;28.60;19.10;;;;;;;16.17;100.00;101137.25;4893386;29;20060;-69
2023/09/17 06:07:38;;;;;;;31.13;20.83;;;;;;;16.18;100.00;101137.00;4893580;29;20036;-69
2023/09/17 06:10:04;;;;;;;31.35;19.95;;;;;;;16.21;100.00;101136.53;4894130;29;20028;-70
2023/09/17 06:12:30;;;;;;;32.67;19.58;;;;;;;16.24;100.00;101142.50;4894129;29;20168;-69
2023/09/17 06:14:55;;;;;;;29.70;18.02;;;;;;;16.21;100.00;101138.41;4894019;29;20128;-69
2023/09/17 06:17:21;;;;;;;33.08;21.05;;;;;;;16.20;100.00;101128.69;4894290;29;20105;-69
2023/09/17 06:19:46;;;;;;;31.67;20.25;;;;;;;16.28;100.00;101139.16;4894023;29;20033;-69
2023/09/17 06:22:12;;;;;;;28.75;20.02;;;;;;;16.32;100.00;101136.81;4893904;29;20052;-69
2023/09/17 06:24:37;;;;;;;30.73;20.88;;;;;;;16.31;100.00;101141.38;4893916;29;20553;-69
2023/09/17 06:27:03;;;;;;;32.75;21.38;;;;;;;16.36;100.00;101143.41;4877180;29;20075;-70
2023/09/17 06:29:29;;;;;;;30.05;19.88;;;;;;;16.38;100.00;101149.38;4876777;29;20493;-69
2023/09/17 06:31:54;;;;;;;28.13;18.50;;;;;;;16.41;100.00;101140.84;4893642;29;20029;-69
2023/09/17 06:34:20;;;;;;;29.15;19.92;;;;;;;16.42;100.00;101139.78;4893951;29;20032;-70
2023/09/17 06:36:45;;;;;;;33.25;22.50;;;;;;;16.42;100.00;101139.78;4894012;29;20504;-70
2023/09/17 06:39:12;;;;;;;30.58;20.90;;;;;;;16.38;100.00;101135.94;4893686;29;21002;-69
2023/09/17 06:41:37;;;;;;;30.27;19.42;;;;;;;16.46;100.00;101140.16;4893509;29;20037;-69
2023/09/17 06:44:02;;;;;;;33.85;20.67;;;;;;;16.48;100.00;101136.19;4893922;29;20405;-70
2023/09/17 06:46:29;;;;;;;31.67;21.45;;;;;;;16.50;100.00;101141.34;4893889;29;20472;-69
2023/09/17 06:48:54;;;;;;;31.73;21.33;;;;;;;16.51;100.00;101135.75;4893770;29;20039;-69
2023/09/17 06:51:20;;;;;;;34.20;22.20;;;;;;;16.54;100.00;101143.34;4893766;29;20028;-69
2023/09/17 06:53:46;;;;;;;34.20;21.20;;;;;;;16.57;100.00;101134.81;4893700;29;20080;-69
2023/09/17 06:56:13;;;;;;;34.70;21.30;;;;;;;16.58;100.00;101144.56;4893824;29;20047;-69
2023/09/17 06:58:39;;;;;;;33.78;20.23;;;;;;;16.58;100.00;101141.84;4893308;29;20044;-69
2023/09/17 07:01:05;;;;;;;32.47;21.90;;;;;;;16.62;100.00;101145.72;4892530;29;20060;-69
2023/09/17 07:03:31;;;;;;;32.00;20.08;;;;;;;16.59;100.00;101132.72;4893129;29;20037;-69
2023/09/17 07:05:56;;;;;;;31.13;22.15;;;;;;;16.59;100.00;101135.41;4893717;29;20044;-69
2023/09/17 07:08:21;;;;;;;31.02;20.45;;;;;;;16.66;100.00;101148.75;4892837;29;20040;-69
2023/09/17 07:10:47;;;;;;;34.03;21.20;;;;;;;16.69;100.00;101140.25;4893672;29;20043;-69
2023/09/17 07:13:12;;;;;;;31.63;20.83;;;;;;;16.66;100.00;101138.00;4895043;29;20029;-69
2023/09/17 07:15:38;;;;;;;31.85;22.27;;;;;;;16.70;100.00;101135.69;4896952;29;20424;-69
2023/09/17 07:18:04;;;;;;;32.80;21.38;;;;;;;16.70;100.00;101138.38;4897075;29;20489;-69
2023/09/17 07:20:29;;;;;;;33.85;22.00;;;;;;;16.67;100.00;101133.44;4879849;29;20037;-69
2023/09/17 07:22:54;;;;;;;34.60;23.30;;;;;;;16.69;100.00;101140.25;4880070;29;20385;-69
2023/09/17 07:25:20;;;;;;;31.33;22.60;;;;;;;16.72;100.00;101142.47;4896864;29;20037;-69
2023/09/17 07:27:45;;;;;;;32.97;21.35;;;;;;;16.72;100.00;101133.56;4896672;29;20041;-69
2023/09/17 07:30:11;;;;;;;34.08;21.73;;;;;;;16.71;100.00;101140.81;4896768;29;20032;-69
2023/09/17 07:32:37;;;;;;;37.00;22.25;;;;;;;16.70;100.00;101136.50;4895941;29;20043;-69
2023/09/17 07:35:03;;;;;;;33.00;21.83;;;;;;;16.71;100.00;101140.00;4895577;29;20048;-69
2023/09/17 07:37:28;;;;;;;33.78;22.25;;;;;;;16.69;100.00;101137.56;4896561;29;20055;-69
2023/09/17 07:40:01;;;;;;;36.80;21.58;;;;;;;16.72;100.00;101141.66;4896652;29;20493;-69
2023/09/17 07:42:27;;;;;;;37.22;21.30;;;;;;;16.70;100.00;101130.28;4896705;29;20032;-69
2023/09/17 07:44:52;;;;;;;34.63;23.88;;;;;;;16.72;100.00;101133.56;4896687;29;20555;-69
2023/09/17 07:47:18;;;;;;;37.03;23.83;;;;;;;16.71;100.00;101126.53;4879666;29;20100;-69
2023/09/17 07:49:43;;;;;;;36.40;25.02;;;;;;;16.72;100.00;101134.41;4896601;29;20779;-69
2023/09/17 07:52:09;;;;;;;39.88;23.02;;;;;;;16.70;100.00;101132.97;4896278;29;20818;-69
2023/09/17 07:54:41;;;;;;;35.50;24.15;;;;;;;16.72;100.00;101139.78;4896284;29;20366;-69
2023/09/17 07:57:10;;;;;;;36.00;23.83;;;;;;;16.66;100.00;101129.91;4896481;29;20052;-69
2023/09/17 07:59:36;;;;;;;38.95;24.90;;;;;;;16.74;100.00;101142.22;4896278;29;20504;-69
2023/09/17 08:02:02;;;;;;;39.08;25.70;;;;;;;16.73;100.00;101141.41;4895761;29;20088;-69
2023/09/17 08:04:28;;;;;;;38.13;26.20;;;;;;;16.74;100.00;101140.38;4896010;29;20028;-69
2023/09/17 08:06:54;;;;;;;36.90;25.50;;;;;;;16.78;100.00;101144.25;4895963;29;20400;-70
2023/09/17 08:09:19;;;;;;;38.72;24.70;;;;;;;16.81;100.00;101145.69;4895865;29;20139;-69
2023/09/17 08:11:45;;;;;;;38.75;24.67;;;;;;;16.80;100.00;101146.75;4895901;29;20457;-69
2023/09/17 08:14:10;;;;;;;41.55;27.63;;;;;;;16.78;100.00;101149.66;4896057;29;20036;-69
2023/09/17 08:16:36;;;;;;;38.03;26.38;;;;;;;16.82;100.00;101152.69;4895963;29;20050;-69
2023/09/17 08:19:02;;;;;;;39.42;26.15;;;;;;;16.86;100.00;101146.63;4896030;29;20536;-69
2023/09/17 08:21:28;;;;;;;41.00;26.85;;;;;;;16.90;100.00;101147.00;4878748;29;20040;-70
2023/09/17 08:23:53;;;;;;;41.75;29.10;;;;;;;16.91;100.00;101147.81;4895223;29;20044;-69
2023/09/17 08:26:21;;;;;;;40.75;29.13;;;;;;;16.91;100.00;101145.94;4895594;29;20037;-70
2023/09/17 08:28:47;;;;;;;45.47;30.50;;;;;;;16.89;100.00;101148.03;4895844;29;20087;-69
2023/09/17 08:31:12;;;;;;;49.08;32.47;;;;;;;16.95;100.00;101149.81;4863610;29;20100;-70
2023/09/17 08:33:38;;;;;;;46.42;32.17;;;;;;;17.00;100.00;101151.81;4895665;29;20037;-69
2023/09/17 08:36:05;;;;;;;48.85;34.33;;;;;;;17.02;100.00;101155.09;4895507;29;20040;-70
2023/09/17 08:38:30;;;;;;;53.15;33.20;;;;;;;17.04;100.00;101156.50;4895793;29;20040;-70
2023/09/17 08:40:58;;;;;;;48.08;34.47;;;;;;;17.04;100.00;101150.28;4895401;29;20674;-70
2023/09/17 08:43:23;;;;;;;44.65;30.70;;;;;;;17.06;100.00;101153.59;4895559;29;20060;-69
2023/09/17 08:45:50;;;;;;;43.92;31.58;;;;;;;17.11;100.00;101159.09;4895864;29;20074;-70
2023/09/17 08:48:17;;;;;;;48.00;32.75;;;;;;;17.14;100.00;101163.22;4895305;29;20416;-69
2023/09/17 08:50:45;;;;;;;43.50;30.40;;;;;;;17.18;100.00;101158.97;4895548;29;20040;-70
2023/09/17 08:53:18;;;;;;;41.80;26.92;;;;;;;17.21;100.00;101150.41;4895062;29;20060;-70
2023/09/17 08:55:45;;;;;;;46.72;30.55;;;;;;;17.24;100.00;101152.69;4895148;29;20043;-69
2023/09/17 08:58:21;;;;;;;44.50;28.88;;;;;;;17.27;100.00;101155.72;4894993;29;20044;-69
2023/09/17 09:00:51;;;;;;;40.75;26.88;;;;;;;17.31;100.00;101159.56;4895047;29;20061;-69
2023/09/17 09:03:20;;;;;;;42.78;27.75;;;;;;;17.38;100.00;101161.34;4895261;29;20048;-69
2023/09/17 09:05:47;;;;;;;44.53;29.90;;;;;;;17.38;100.00;101167.56;4895254;29;20037;-69
2023/09/17 09:08:13;;;;;;;49.47;31.00;;;;;;;17.39;100.00;101176.47;4895100;29;20670;-70
2023/09/17 09:10:38;;;;;;;46.47;29.80;;;;;;;17.45;100.00;101167.44;4878148;29;20040;-70
2023/09/17 09:13:04;;;;;;;47.72;33.03;;;;;;;17.50;100.00;101172.94;4894960;29;20081;-70
2023/09/17 09:15:30;;;;;;;45.13;30.45;;;;;;;17.52;100.00;101171.66;4878134;29;20164;-70
2023/09/17 09:17:56;;;;;;;45.67;32.13;;;;;;;17.52;100.00;101174.34;4895051;29;20113;-70
2023/09/17 09:20:22;;;;;;;47.17;31.88;;;;;;;17.60;100.00;101188.53;4894826;29;20032;-70
2023/09/17 09:22:47;;;;;;;47.40;31.70;;;;;;;17.66;100.00;101182.22;4894788;29;20082;-70
2023/09/17 09:25:15;;;;;;;51.55;32.78;;;;;;;17.77;100.00;101183.25;4894695;29;20068;-70
2023/09/17 09:27:41;;;;;;;47.05;34.38;;;;;;;17.83;100.00;101176.94;4894645;29;20508;-70
2023/09/17 09:30:11;;;;;;;45.33;32.20;;;;;;;17.94;100.00;101174.22;4894696;29;20121;-70
2023/09/17 09:32:37;;;;;;;47.83;30.55;;;;;;;18.01;100.00;101182.19;4894408;29;20031;-71
2023/09/17 09:35:04;;;;;;;48.25;32.97;;;;;;;18.08;100.00;101163.19;4894488;29;20039;-71
2023/09/17 09:37:29;;;;;;;50.05;32.28;;;;;;;18.21;100.00;101162.06;4877773;29;20049;-71
2023/09/17 09:39:55;;;;;;;50.38;33.35;;;;;;;18.32;100.00;101163.91;4877553;29;20040;-71
2023/09/17 09:42:22;;;;;;;47.50;33.25;;;;;;;18.39;100.00;101165.41;4877358;29;20037;-71
2023/09/17 09:44:50;;;;;;;54.95;35.97;;;;;;;18.45;100.00;101162.81;4877762;29;21047;-71
2023/09/17 09:47:16;;;;;;;47.72;33.67;;;;;;;18.48;100.00;101163.13;4894405;29;20063;-71
2023/09/17 09:49:44;;;;;;;51.40;33.30;;;;;;;18.49;100.00;101166.66;4894526;29;20075;-71
2023/09/17 09:52:14;;;;;;;44.85;31.55;;;;;;;18.49;100.00;101159.38;4894379;29;20024;-71
2023/09/17 09:54:40;;;;;;;48.92;30.48;;;;;;;18.55;100.00;101155.72;4877691;29;20515;-71
2023/09/17 09:57:06;;;;;;;46.10;30.42;;;;;;;18.59;100.00;101147.94;4894201;29;20730;-71
2023/09/17 09:59:36;;;;;;;45.88;31.00;;;;;;;18.55;100.00;101153.03;4894387;29;20115;-71
2023/09/17 10:02:03;;;;;;;43.60;30.90;;;;;;;18.54;100.00;101155.94;4877410;29;20060;-72
2023/09/17 10:04:29;;;;;;;45.33;28.85;;;;;;;18.56;100.00;101159.22;4894384;29;20103;-72
2023/09/17 10:06:55;;;;;;;44.35;30.83;;;;;;;18.54;100.00;101153.25;4877310;29;20484;-71
2023/09/17 10:09:23;;;;;;;48.45;31.25;;;;;;;18.51;100.00;101154.56;4894213;29;20095;-72
2023/09/17 10:11:48;;;;;;;44.80;30.98;;;;;;;18.52;100.00;101152.66;4894274;29;20481;-73
2023/09/17 10:14:14;;;;;;;49.42;32.38;;;;;;;18.52;100.00;101153.50;4893943;29;20036;-72
2023/09/17 10:16:40;;;;;;;41.20;29.70;;;;;;;18.46;100.00;101150.94;4894175;29;20101;-71
2023/09/17 10:19:07;;;;;;;46.70;30.48;;;;;;;18.47;100.00;101149.88;4894037;29;20043;-71
2023/09/17 10:21:38;;;;;;;45.10;28.95;;;;;;;18.44;100.00;101156.56;4893943;29;20037;-71
2023/09/17 10:24:04;;;;;;;42.50;28.38;;;;;;;18.38;100.00;101152.16;4893993;29;20040;-70
2023/09/17 10:26:32;;;;;;;43.08;28.58;;;;;;;18.36;100.00;101146.97;4894117;29;20044;-71
2023/09/17 10:29:00;;;;;;;42.85;25.90;;;;;;;18.34;100.00;101148.31;4893831;29;20337;-71
2023/09/17 10:31:26;;;;;;;41.33;25.60;;;;;;;18.31;100.00;101152.31;4893994;29;20088;-71
2023/09/17 10:33:52;;;;;;;41.85;23.30;;;;;;;18.31;100.00;101148.75;4893813;29;20049;-71
2023/09/17 10:36:18;;;;;;;42.45;27.27;;;;;;;18.31;100.00;101143.34;4893805;29;20059;-71
2023/09/17 10:38:46;;;;;;;44.08;24.92;;;;;;;18.32;100.00;101145.84;4894009;29;20068;-70
2023/09/17 10:41:12;;;;;;;46.40;27.27;;;;;;;18.37;100.00;101139.72;4893886;29;20114;-71
2023/09/17 10:43:39;;;;;;;44.25;25.65;;;;;;;18.48;100.00;101141.53;4893958;29;20471;-70
2023/09/17 10:46:06;;;;;;;47.92;26.58;;;;;;;18.72;100.00;101144.94;4893837;29;20029;-71
2023/09/17 10:48:33;;;;;;;50.20;28.42;;;;;;;18.89;100.00;101146.84;4895852;29;20052;-71
2023/09/17 10:50:59;;;;;;;48.40;27.38;;;;;;;18.94;100.00;101141.53;4880436;29;20440;-71
2023/09/17 10:53:26;;;;;;;49.13;26.33;;;;;;;18.87;100.00;101149.81;4880316;29;20115;-70
2023/09/17 10:56:01;;;;;;;42.22;26.40;;;;;;;18.80;100.00;101138.34;4897345;29;20045;-70
2023/09/17 10:58:35;;;;;;;41.92;24.83;;;;;;;18.81;100.00;101139.97;4897331;29;20456;-71